Time;durP1;ratioP1;P1;durP2;ratioP2;P2;SDS_P1;SDS_P2;PMS_P1;PMS_P2;Temp;Humidity;BMP_temperature;BMP_pressure;BME280_temperature;BME280_humidity;BME280_pressure;Samples;Min_cycle;Max_cycle;Signal;HPM_P1;HPM_P2
2022/03/28 00:01:50;;;;;;;18.80;9.15;;;7.10;99.90;;;;;;5138085;27;20050;-74
2022/03/28 00:04:16;;;;;;;14.02;9.65;;;7.10;99.90;;;;;;5156487;27;20043;-73
2022/03/28 00:06:41;;;;;;;11.48;9.90;;;7.10;99.90;;;;;;5156877;27;20034;-73
2022/03/28 00:09:07;;;;;;;33.08;10.60;;;7.10;99.90;;;;;;5120696;27;20039;-73
2022/03/28 00:11:33;;;;;;;35.22;10.70;;;7.10;99.90;;;;;;5137810;27;20508;-73
2022/03/28 00:13:58;;;;;;;12.40;10.43;;;7.10;99.90;;;;;;5137376;27;20087;-74
2022/03/28 00:16:24;;;;;;;40.58;11.40;;;7.10;99.90;;;;;;5137724;27;20110;-73
2022/03/28 00:18:50;;;;;;;20.08;10.95;;;7.10;99.90;;;;;;5156054;27;20047;-73
2022/03/28 00:21:16;;;;;;;70.07;12.57;;;7.10;99.90;;;;;;5137191;27;20038;-73
2022/03/28 00:23:41;;;;;;;16.08;11.00;;;7.00;99.90;;;;;;5156101;27;20501;-74
2022/03/28 00:26:07;;;;;;;66.20;12.57;;;7.00;99.90;;;;;;5155273;27;20030;-73
2022/03/28 00:28:32;;;;;;;24.30;11.95;;;7.10;99.90;;;;;;5156075;27;20043;-73
2022/03/28 00:30:58;;;;;;;14.25;12.50;;;7.00;99.90;;;;;;5137243;27;20057;-74
2022/03/28 00:33:24;;;;;;;27.42;12.23;;;7.00;99.90;;;;;;5155903;27;20436;-73
2022/03/28 00:35:49;;;;;;;33.25;12.20;;;7.10;99.90;;;;;;5155836;27;20095;-73
2022/03/28 00:38:15;;;;;;;15.35;11.98;;;7.00;99.90;;;;;;5136997;27;20047;-73
2022/03/28 00:40:42;;;;;;;13.05;11.75;;;7.00;99.90;;;;;;5137628;27;20050;-73
2022/03/28 00:43:08;;;;;;;18.77;12.20;;;7.00;99.90;;;;;;5137065;27;20390;-73
2022/03/28 00:45:35;;;;;;;16.48;11.65;;;7.10;99.90;;;;;;5137483;27;20042;-74
2022/03/28 00:48:01;;;;;;;14.38;10.77;;;7.10;99.90;;;;;;5136762;27;20089;-73
2022/03/28 00:50:30;;;;;;;12.90;11.48;;;7.10;99.90;;;;;;5136909;27;20039;-73
2022/03/28 00:52:56;;;;;;;16.60;10.10;;;7.10;99.90;;;;;;5155468;27;20043;-73
2022/03/28 00:55:22;;;;;;;11.05;9.98;;;7.00;99.90;;;;;;5120034;27;20414;-73
2022/03/28 00:57:47;;;;;;;12.20;10.13;;;7.10;99.90;;;;;;5155434;27;20054;-73
2022/03/28 01:00:14;;;;;;;13.48;11.02;;;7.00;99.90;;;;;;5136859;27;20051;-73
2022/03/28 01:02:40;;;;;;;15.15;10.27;;;7.10;99.90;;;;;;5120192;27;20043;-73
2022/03/28 01:05:06;;;;;;;25.67;11.52;;;7.00;99.90;;;;;;5154769;27;20039;-73
2022/03/28 01:07:31;;;;;;;18.10;10.68;;;7.10;99.90;;;;;;5155331;27;20050;-74
2022/03/28 01:09:59;;;;;;;15.65;11.23;;;7.10;99.90;;;;;;5155170;27;20046;-74
2022/03/28 01:12:30;;;;;;;12.88;9.95;;;7.10;99.90;;;;;;5154925;27;20552;-73
2022/03/28 01:14:55;;;;;;;22.10;10.40;;;7.00;99.90;;;;;;5136805;27;20042;-73
2022/03/28 01:20:06;;;;;;;14.30;9.35;;;7.10;99.90;;;;;;5154658;27;20046;-73
2022/03/28 01:22:32;;;;;;;14.23;9.65;;;7.00;99.90;;;;;;5119426;27;20085;-74
2022/03/28 01:24:59;;;;;;;17.90;9.90;;;7.10;99.90;;;;;;5136765;27;20077;-73
2022/03/28 01:27:25;;;;;;;14.07;10.05;;;7.00;99.90;;;;;;5154196;27;20495;-73
2022/03/28 01:29:51;;;;;;;10.70;9.60;;;7.00;99.90;;;;;;5085761;27;20057;-73
2022/03/28 01:32:16;;;;;;;11.02;9.60;;;7.00;99.90;;;;;;5118921;27;20046;-73
2022/03/28 01:34:42;;;;;;;38.97;9.00;;;7.10;99.90;;;;;;5132077;27;20169;-73
2022/03/28 01:37:08;;;;;;;9.25;7.85;;;7.00;99.90;;;;;;5145498;27;20091;-73
2022/03/28 01:39:33;;;;;;;10.27;8.43;;;7.00;99.90;;;;;;5135824;27;20038;-73
2022/03/28 01:41:59;;;;;;;8.68;7.80;;;7.00;99.90;;;;;;5119046;27;20368;-73
2022/03/28 01:44:25;;;;;;;10.10;6.90;;;7.00;99.90;;;;;;5153817;27;20489;-73
2022/03/28 01:46:51;;;;;;;9.95;6.63;;;6.90;99.90;;;;;;5154268;27;20478;-73
2022/03/28 01:49:18;;;;;;;8.05;6.93;;;6.90;99.90;;;;;;5153657;27;20094;-73
2022/03/28 01:51:44;;;;;;;8.52;6.57;;;7.00;99.90;;;;;;5129735;27;20380;-74
2022/03/28 01:54:09;;;;;;;19.30;7.68;;;6.90;99.90;;;;;;5134969;27;20042;-73
2022/03/28 01:56:37;;;;;;;8.45;6.65;;;6.90;99.90;;;;;;5134971;27;20081;-74
2022/03/28 01:59:03;;;;;;;7.93;5.72;;;7.00;99.90;;;;;;5153926;27;20049;-74
2022/03/28 02:01:29;;;;;;;8.25;6.38;;;7.00;99.90;;;;;;5134832;27;20089;-73
2022/03/28 02:03:54;;;;;;;8.38;6.10;;;6.90;99.90;;;;;;5153947;27;20078;-73
2022/03/28 02:06:20;;;;;;;6.88;6.18;;;6.90;99.90;;;;;;5153768;27;20047;-73
2022/03/28 02:08:46;;;;;;;6.20;5.60;;;6.90;99.90;;;;;;5154265;27;20038;-73
2022/03/28 02:11:12;;;;;;;6.68;5.90;;;6.90;99.90;;;;;;5135331;27;20125;-73
2022/03/28 02:13:37;;;;;;;7.22;5.70;;;6.90;99.90;;;;;;5118785;27;20050;-73
2022/03/28 02:16:04;;;;;;;6.15;5.55;;;6.80;99.90;;;;;;5154173;27;20076;-73
2022/03/28 02:18:29;;;;;;;6.07;5.47;;;6.90;99.90;;;;;;5153823;27;20394;-73
2022/03/28 02:20:55;;;;;;;7.93;5.53;;;6.90;99.90;;;;;;5135449;27;20073;-73
2022/03/28 02:23:20;;;;;;;6.80;5.68;;;6.90;99.90;;;;;;5118297;27;20035;-73
2022/03/28 02:25:46;;;;;;;8.15;5.93;;;6.90;99.90;;;;;;5135727;27;20039;-73
2022/03/28 02:28:12;;;;;;;7.60;5.95;;;6.90;99.90;;;;;;5153644;27;20394;-74
2022/03/28 02:30:38;;;;;;;9.80;5.82;;;6.80;99.90;;;;;;5154181;27;20175;-73
2022/03/28 02:33:04;;;;;;;6.28;5.68;;;6.80;99.90;;;;;;5153819;27;20042;-73
2022/03/28 02:35:30;;;;;;;10.98;5.95;;;6.80;99.90;;;;;;5134923;27;20551;-73
2022/03/28 02:38:00;;;;;;;7.45;6.35;;;6.80;99.90;;;;;;5154329;27;20038;-73
2022/03/28 02:40:26;;;;;;;;;;;6.80;99.90;;;;;;5135834;27;20047;-74
2022/03/28 02:42:52;;;;;;;6.50;5.60;;;6.70;99.90;;;;;;5153996;27;19918;-73
2022/03/28 02:45:17;;;;;;;9.38;6.30;;;6.70;99.90;;;;;;5153481;27;20059;-73
2022/03/28 02:47:43;;;;;;;8.10;6.20;;;6.70;99.90;;;;;;5118943;27;20046;-73
2022/03/28 02:50:09;;;;;;;9.48;5.95;;;6.70;99.90;;;;;;5157970;27;20041;-73
2022/03/28 02:52:34;;;;;;;9.90;6.07;;;6.80;99.90;;;;;;5139087;27;20130;-73
2022/03/28 02:55:00;;;;;;;9.48;6.53;;;6.80;99.90;;;;;;5157791;27;20089;-73
2022/03/28 02:57:26;;;;;;;8.85;5.95;;;6.80;99.90;;;;;;5138757;27;20477;-73
2022/03/28 02:59:51;;;;;;;9.68;6.65;;;6.80;99.90;;;;;;5139364;27;20042;-73
2022/03/28 03:02:17;;;;;;;8.68;6.30;;;6.90;99.90;;;;;;5157263;27;20079;-73
2022/03/28 03:04:42;;;;;;;9.63;6.95;;;6.90;99.90;;;;;;5157683;27;20035;-73
2022/03/28 03:07:08;;;;;;;8.45;6.88;;;6.80;99.90;;;;;;5139439;27;20482;-73
2022/03/28 03:09:34;;;;;;;7.97;6.43;;;6.80;99.90;;;;;;5157080;27;20126;-73
2022/03/28 03:11:59;;;;;;;10.95;7.22;;;6.80;99.90;;;;;;5139354;27;20372;-73
2022/03/28 03:14:25;;;;;;;12.50;6.72;;;6.80;99.90;;;;;;5138327;27;20057;-73
2022/03/28 03:16:51;;;;;;;7.75;6.45;;;6.90;99.90;;;;;;5138960;27;20046;-73
2022/03/28 03:19:17;;;;;;;9.23;6.88;;;6.80;99.90;;;;;;5157468;27;20133;-73
2022/03/28 03:21:42;;;;;;;7.50;6.63;;;6.80;99.90;;;;;;5157253;27;20067;-73
2022/03/28 03:24:08;;;;;;;9.82;6.35;;;6.90;99.90;;;;;;5157073;27;20046;-73
2022/03/28 03:26:34;;;;;;;9.80;6.35;;;6.90;99.90;;;;;;5156876;27;20126;-73
2022/03/28 03:28:59;;;;;;;9.98;6.40;;;6.80;99.90;;;;;;5157234;27;20086;-73
2022/03/28 03:31:25;;;;;;;11.60;6.53;;;6.80;99.90;;;;;;5156683;27;20046;-73
2022/03/28 03:33:51;;;;;;;13.43;6.05;;;6.80;99.90;;;;;;5157076;27;20111;-73
2022/03/28 03:36:17;;;;;;;7.18;5.85;;;6.80;99.90;;;;;;5157072;27;20400;-73
2022/03/28 03:38:42;;;;;;;10.10;6.00;;;6.80;99.90;;;;;;5138394;27;20086;-74
2022/03/28 03:41:08;;;;;;;9.35;6.47;;;6.80;99.90;;;;;;5157102;27;20054;-73
2022/03/28 03:43:33;;;;;;;10.32;6.25;;;6.70;99.90;;;;;;5138376;27;20074;-73
2022/03/28 03:45:59;;;;;;;7.25;6.28;;;6.70;99.90;;;;;;5138425;27;20043;-73
2022/03/28 03:48:26;;;;;;;11.13;7.25;;;6.70;99.90;;;;;;5138301;27;20050;-74
2022/03/28 03:50:53;;;;;;;8.63;6.13;;;6.70;99.90;;;;;;5156931;27;20107;-73
2022/03/28 03:53:19;;;;;;;8.63;5.75;;;6.70;99.90;;;;;;5121068;27;20486;-73
2022/03/28 03:55:48;;;;;;;8.65;5.88;;;6.70;99.90;;;;;;5156200;27;20047;-73
2022/03/28 03:58:14;;;;;;;7.55;5.80;;;6.70;99.90;;;;;;5156473;27;20554;-73
2022/03/28 04:00:40;;;;;;;6.47;5.80;;;6.80;99.90;;;;;;5137001;27;20082;-73
2022/03/28 04:03:05;;;;;;;6.07;5.43;;;6.60;99.90;;;;;;5134708;27;20297;-74
2022/03/28 04:05:32;;;;;;;7.82;5.63;;;6.60;99.90;;;;;;5148238;27;20043;-73
2022/03/28 04:07:59;;;;;;;8.18;6.00;;;6.70;99.90;;;;;;5136499;27;20069;-73
2022/03/28 04:10:26;;;;;;;5.97;5.20;;;6.60;99.90;;;;;;5155916;27;20126;-73
2022/03/28 04:12:52;;;;;;;7.95;5.85;;;6.60;99.90;;;;;;5156083;27;20432;-74
2022/03/28 04:15:18;;;;;;;8.13;6.00;;;6.50;99.90;;;;;;5137485;27;20046;-74
2022/03/28 04:17:44;;;;;;;7.28;5.75;;;6.50;99.90;;;;;;5155554;27;20042;-73
2022/03/28 04:20:11;;;;;;;9.45;6.53;;;6.60;99.90;;;;;;5155833;27;20474;-73
2022/03/28 04:22:37;;;;;;;7.97;6.40;;;6.50;99.90;;;;;;5149428;27;20148;-73
2022/03/28 04:25:03;;;;;;;10.40;6.50;;;6.50;99.90;;;;;;5155666;27;20066;-73
2022/03/28 04:27:28;;;;;;;8.35;6.22;;;6.50;99.90;;;;;;5137348;27;20491;-78
2022/03/28 04:29:54;;;;;;;10.10;6.78;;;6.50;99.90;;;;;;5155573;27;20046;-73
2022/03/28 04:32:20;;;;;;;8.73;6.82;;;6.50;99.90;;;;;;5155612;27;20039;-74
2022/03/28 04:34:45;;;;;;;8.77;6.78;;;6.60;99.90;;;;;;5155264;27;20049;-73
2022/03/28 04:37:11;;;;;;;11.27;7.22;;;6.60;99.90;;;;;;5137567;27;20121;-74
2022/03/28 04:39:37;;;;;;;9.60;6.97;;;6.50;99.90;;;;;;5155431;27;20046;-73
2022/03/28 04:42:02;;;;;;;12.77;7.40;;;6.50;99.90;;;;;;5137522;27;20042;-73
2022/03/28 04:44:28;;;;;;;13.02;7.78;;;6.50;99.90;;;;;;5137474;27;20053;-73
2022/03/28 04:46:54;;;;;;;11.00;7.47;;;6.50;99.90;;;;;;5136789;27;20421;-73
2022/03/28 04:49:19;;;;;;;9.23;8.05;;;6.50;99.90;;;;;;5155646;27;20053;-73
2022/03/28 04:51:45;;;;;;;12.05;8.30;;;6.50;99.90;;;;;;5155098;27;20131;-73
2022/03/28 04:54:10;;;;;;;13.23;8.32;;;6.50;99.90;;;;;;5137341;27;20398;-73
2022/03/28 04:56:36;;;;;;;9.77;8.32;;;6.50;99.90;;;;;;5154815;27;20378;-73
2022/03/28 04:59:02;;;;;;;9.27;7.95;;;6.60;99.90;;;;;;5154896;27;20112;-73
2022/03/28 05:01:28;;;;;;;11.52;7.88;;;6.50;99.90;;;;;;5155643;27;20078;-72
2022/03/28 05:03:53;;;;;;;9.88;8.25;;;6.50;99.90;;;;;;5154648;27;20375;-73
2022/03/28 05:06:19;;;;;;;13.02;7.95;;;6.50;99.90;;;;;;5155318;27;20035;-72
2022/03/28 05:08:45;;;;;;;15.75;8.38;;;6.50;99.90;;;;;;5136554;27;20039;-72
2022/03/28 05:11:10;;;;;;;10.85;8.35;;;6.50;99.90;;;;;;5154513;27;20043;-72
2022/03/28 05:13:36;;;;;;;17.08;7.68;;;6.50;99.90;;;;;;5154917;27;20371;-72
2022/03/28 05:16:02;;;;;;;11.65;7.82;;;6.50;99.90;;;;;;5155159;27;20046;-72
2022/03/28 05:18:27;;;;;;;11.80;7.95;;;6.40;99.90;;;;;;5136683;27;20078;-72
2022/03/28 05:20:53;;;;;;;9.10;7.53;;;6.40;99.90;;;;;;5154187;27;20078;-72
2022/03/28 05:23:19;;;;;;;8.63;7.70;;;6.30;99.90;;;;;;5154913;27;20090;-71
2022/03/28 05:25:45;;;;;;;8.95;7.53;;;6.30;99.90;;;;;;5154488;27;20082;-71
2022/03/28 05:28:10;;;;;;;8.35;7.13;;;6.30;99.90;;;;;;5154995;27;20078;-71
2022/03/28 05:30:36;;;;;;;8.82;6.85;;;6.30;99.90;;;;;;5154959;27;20402;-72
2022/03/28 05:33:02;;;;;;;8.20;6.88;;;6.40;99.90;;;;;;5154681;27;20129;-72
2022/03/28 05:35:28;;;;;;;6.93;5.30;;;6.30;99.90;;;;;;5154743;27;20397;-71
2022/03/28 05:37:53;;;;;;;6.38;5.15;;;6.30;99.90;;;;;;5154519;27;20047;-71
2022/03/28 05:40:19;;;;;;;9.05;5.32;;;6.20;99.90;;;;;;5136436;27;20061;-72
2022/03/28 05:42:45;;;;;;;6.45;4.90;;;6.30;99.90;;;;;;5154263;27;20041;-72
2022/03/28 05:45:11;;;;;;;6.10;5.20;;;6.30;99.90;;;;;;5136314;27;20526;-72
2022/03/28 05:47:37;;;;;;;6.05;4.85;;;6.20;99.90;;;;;;5154544;27;20043;-71
2022/03/28 05:50:03;;;;;;;5.93;4.68;;;6.20;99.90;;;;;;5135733;27;20493;-72
2022/03/28 05:52:29;;;;;;;6.10;5.00;;;6.30;99.90;;;;;;5154596;27;20054;-71
2022/03/28 05:54:55;;;;;;;6.13;5.05;;;6.30;99.90;;;;;;5153962;27;20080;-72
2022/03/28 05:57:20;;;;;;;7.20;5.38;;;6.40;99.90;;;;;;5154155;27;20058;-72
2022/03/28 05:59:46;;;;;;;7.72;5.22;;;6.30;99.90;;;;;;5154371;27;20047;-72
2022/03/28 06:02:12;;;;;;;7.95;5.28;;;6.30;99.90;;;;;;5154500;27;20122;-72
2022/03/28 06:04:37;;;;;;;7.45;5.53;;;6.30;99.90;;;;;;5154482;27;20050;-71
2022/03/28 06:07:03;;;;;;;9.38;5.85;;;6.30;99.90;;;;;;5135747;27;20078;-72
2022/03/28 06:09:29;;;;;;;8.10;5.50;;;6.40;99.90;;;;;;5154398;27;20458;-72
2022/03/28 06:11:55;;;;;;;8.38;5.40;;;6.30;99.90;;;;;;5135367;27;20078;-71
2022/03/28 06:14:20;;;;;;;6.90;5.20;;;6.40;99.90;;;;;;5118783;27;20046;-72
2022/03/28 06:16:46;;;;;;;7.80;5.40;;;6.40;99.90;;;;;;5153798;27;20111;-76
2022/03/28 06:19:11;;;;;;;7.70;5.38;;;6.40;99.90;;;;;;5153939;27;20050;-72
2022/03/28 06:21:37;;;;;;;6.40;4.93;;;6.40;99.90;;;;;;5154258;27;20126;-72
2022/03/28 06:24:03;;;;;;;5.32;4.22;;;6.40;99.90;;;;;;5138044;27;20034;-71
2022/03/28 06:26:29;;;;;;;6.97;4.07;;;6.40;99.90;;;;;;5140092;27;20146;-71
2022/03/28 06:28:54;;;;;;;5.68;4.00;;;6.40;99.90;;;;;;5158052;27;20043;-71
2022/03/28 06:31:21;;;;;;;4.72;3.15;;;6.30;99.90;;;;;;5139943;27;20046;-72
2022/03/28 06:33:47;;;;;;;3.95;3.10;;;6.40;99.90;;;;;;5154048;27;20058;-72
2022/03/28 06:36:13;;;;;;;3.63;2.97;;;6.40;99.90;;;;;;5149502;27;20039;-71
2022/03/28 06:38:38;;;;;;;3.65;2.60;;;6.30;99.90;;;;;;5158022;27;20497;-71
2022/03/28 06:41:04;;;;;;;3.65;2.83;;;6.30;99.90;;;;;;5157367;27;20129;-72
2022/03/28 06:43:30;;;;;;;3.75;3.08;;;6.30;99.90;;;;;;5158013;27;20446;-71
2022/03/28 06:45:56;;;;;;;4.50;2.95;;;6.20;99.90;;;;;;5157368;27;20165;-71
2022/03/28 06:48:21;;;;;;;4.80;3.70;;;6.30;99.90;;;;;;5157808;27;20494;-71
2022/03/28 06:50:47;;;;;;;4.10;3.63;;;6.20;99.90;;;;;;5157731;27;20127;-72
2022/03/28 06:53:13;;;;;;;4.10;3.45;;;6.20;99.90;;;;;;5132601;27;20581;-71
2022/03/28 06:55:38;;;;;;;4.50;3.78;;;6.20;99.90;;;;;;5157597;27;20126;-71
2022/03/28 06:58:04;;;;;;;5.22;4.65;;;6.30;99.90;;;;;;5138152;27;20414;-72
2022/03/28 07:00:30;;;;;;;5.80;4.25;;;6.30;99.90;;;;;;5139005;27;20496;-71
2022/03/28 07:02:55;;;;;;;5.85;4.72;;;6.30;99.90;;;;;;5138717;27;20103;-71
2022/03/28 07:05:21;;;;;;;5.82;4.47;;;6.30;99.90;;;;;;5138959;27;20047;-72
2022/03/28 07:07:50;;;;;;;7.25;5.25;;;6.30;99.90;;;;;;5157702;27;20142;-71
2022/03/28 07:10:19;;;;;;;8.60;5.50;;;6.40;99.90;;;;;;5121618;27;20111;-71
2022/03/28 07:12:45;;;;;;;7.00;5.47;;;6.40;99.90;;;;;;5157572;27;20061;-71
2022/03/28 07:15:11;;;;;;;9.02;6.05;;;6.40;99.90;;;;;;5157035;27;20039;-71
2022/03/28 07:18:02;;;;;;;6.90;6.07;;;6.40;99.90;;;;;;5138961;27;20074;-72
2022/03/28 07:20:29;;;;;;;7.72;6.35;;;6.40;99.90;;;;;;5139904;27;20488;-71
2022/03/28 07:22:55;;;;;;;9.10;6.45;;;6.50;99.90;;;;;;5138624;27;20057;-76
2022/03/28 07:25:21;;;;;;;8.43;6.93;;;6.50;99.90;;;;;;5138938;27;20379;-71
2022/03/28 07:27:50;;;;;;;8.77;7.00;;;6.50;99.90;;;;;;5138736;27;20490;-71
2022/03/28 07:30:17;;;;;;;10.55;7.53;;;6.50;99.90;;;;;;5138519;27;20089;-71
2022/03/28 07:32:42;;;;;;;8.48;7.57;;;6.50;99.90;;;;;;5157297;27;20450;-71
2022/03/28 07:35:08;;;;;;;10.32;7.80;;;6.50;99.90;;;;;;5155394;27;20073;-72
2022/03/28 07:37:34;;;;;;;9.95;8.20;;;6.40;99.90;;;;;;5157066;27;20046;-71
2022/03/28 07:40:01;;;;;;;9.63;7.55;;;6.40;99.90;;;;;;5121466;27;20046;-72
2022/03/28 07:42:28;;;;;;;10.70;7.90;;;6.50;99.90;;;;;;5156726;27;20486;-71
2022/03/28 07:44:56;;;;;;;10.75;8.55;;;6.50;99.90;;;;;;5156962;27;20061;-71
2022/03/28 07:47:25;;;;;;;17.27;10.13;;;6.50;99.90;;;;;;5121625;27;20446;-71
2022/03/28 07:49:52;;;;;;;17.77;11.63;;;6.60;99.90;;;;;;5157198;27;20142;-71
2022/03/28 07:52:18;;;;;;;15.68;11.73;;;6.60;99.90;;;;;;5156388;27;20066;-71
2022/03/28 07:54:44;;;;;;;19.83;13.10;;;6.60;99.90;;;;;;5138220;27;20482;-71
2022/03/28 07:57:09;;;;;;;19.48;13.43;;;6.70;99.90;;;;;;5137514;27;20051;-72
2022/03/28 07:59:35;;;;;;;20.25;14.20;;;6.70;99.90;;;;;;5156598;27;20151;-71
2022/03/28 08:02:01;;;;;;;25.25;17.42;;;6.70;99.90;;;;;;5156361;27;20038;-75
2022/03/28 08:04:27;;;;;;;25.58;17.38;;;6.70;99.90;;;;;;5156307;27;20047;-72
2022/03/28 08:06:53;;;;;;;26.92;18.00;;;6.70;99.90;;;;;;5156539;27;20436;-73
2022/03/28 08:09:18;;;;;;;25.70;16.17;;;6.80;99.90;;;;;;5155950;27;20086;-72
2022/03/28 08:11:44;;;;;;;27.48;18.40;;;6.80;99.90;;;;;;5137933;27;20132;-72
2022/03/28 08:14:10;;;;;;;25.15;17.77;;;6.80;99.90;;;;;;5137309;27;20451;-72
2022/03/28 08:16:35;;;;;;;31.80;19.05;;;6.80;99.90;;;;;;5155965;27;20116;-73
2022/03/28 08:19:01;;;;;;;32.00;20.75;;;6.80;99.90;;;;;;5137769;27;20046;-73
2022/03/28 08:21:27;;;;;;;31.17;20.73;;;6.90;99.90;;;;;;5137300;27;20042;-71
2022/03/28 08:23:52;;;;;;;30.15;20.60;;;6.80;99.90;;;;;;5155769;27;20466;-72
2022/03/28 08:26:18;;;;;;;28.15;19.48;;;6.80;99.90;;;;;;5155440;27;20043;-72
2022/03/28 08:28:44;;;;;;;30.05;19.25;;;6.80;99.90;;;;;;5137070;27;20095;-72
2022/03/28 08:31:10;;;;;;;29.42;19.90;;;6.80;99.90;;;;;;5155102;27;20082;-72
2022/03/28 08:33:36;;;;;;;26.63;18.33;;;6.90;99.90;;;;;;5155913;27;20043;-71
2022/03/28 08:36:01;;;;;;;27.48;19.45;;;7.00;99.90;;;;;;5155482;27;20035;-74
2022/03/28 08:38:27;;;;;;;27.50;18.45;;;7.00;99.90;;;;;;5155251;27;20046;-72
2022/03/28 08:40:53;;;;;;;28.40;19.88;;;7.00;99.90;;;;;;5155819;27;20071;-71
2022/03/28 08:43:20;;;;;;;27.88;19.55;;;7.00;99.90;;;;;;5113244;27;20403;-71
2022/03/28 08:45:50;;;;;;;27.92;19.80;;;7.00;99.90;;;;;;5116440;27;20035;-72
2022/03/28 08:48:16;;;;;;;27.95;20.60;;;7.00;99.90;;;;;;5099396;27;20050;-71
2022/03/28 08:50:43;;;;;;;30.17;20.77;;;7.00;99.90;;;;;;5134884;27;20117;-71
2022/03/28 08:53:08;;;;;;;32.58;21.70;;;7.00;99.90;;;;;;5134757;27;20047;-71
2022/03/28 08:55:35;;;;;;;32.15;22.98;;;7.00;99.90;;;;;;5116303;27;20047;-71
2022/03/28 08:58:00;;;;;;;32.45;20.95;;;7.00;99.90;;;;;;5116227;27;20055;-71
2022/03/28 09:00:26;;;;;;;29.88;21.33;;;7.00;99.90;;;;;;5134055;27;20410;-71
2022/03/28 09:02:55;;;;;;;30.42;20.67;;;7.00;99.90;;;;;;5134539;27;20068;-71
2022/03/28 09:05:29;;;;;;;28.83;20.55;;;7.10;99.90;;;;;;5098815;27;20046;-71
2022/03/28 09:07:58;;;;;;;29.83;20.65;;;7.10;99.90;;;;;;5134487;27;20058;-71
2022/03/28 09:10:24;;;;;;;29.85;20.10;;;7.20;99.90;;;;;;5133997;27;20054;-72
2022/03/28 09:13:09;;;;;;;29.40;20.85;;;7.20;99.90;;;;;;5134473;27;20125;-71
2022/03/28 09:15:46;;;;;;;29.55;21.20;;;7.30;99.90;;;;;;5133745;27;20031;-71
2022/03/28 09:18:22;;;;;;;30.95;21.50;;;7.30;99.90;;;;;;5099086;27;20101;-72
2022/03/28 09:21:12;;;;;;;29.50;20.65;;;7.30;99.90;;;;;;5134211;27;20051;-71
2022/03/28 09:23:40;;;;;;;32.13;21.42;;;7.40;99.90;;;;;;5117923;27;20379;-72
2022/03/28 09:26:12;;;;;;;30.05;21.42;;;7.40;99.90;;;;;;5134007;27;20039;-72
2022/03/28 09:28:38;;;;;;;31.00;22.25;;;7.40;99.90;;;;;;5133577;27;20051;-72
2022/03/28 09:31:26;;;;;;;32.38;21.58;;;7.40;99.90;;;;;;5134018;27;20066;-72
2022/03/28 09:33:53;;;;;;;31.67;22.20;;;7.50;99.90;;;;;;5133911;27;20046;-71
2022/03/28 09:36:36;;;;;;;33.90;22.10;;;7.50;99.90;;;;;;5114968;27;20122;-71
2022/03/28 09:39:04;;;;;;;26.45;21.45;;;7.50;99.90;;;;;;5133842;27;20126;-72
2022/03/28 09:41:30;;;;;;;29.05;21.73;;;7.50;99.90;;;;;;5115233;27;20130;-72
2022/03/28 09:43:55;;;;;;;27.40;21.33;;;7.50;99.90;;;;;;5133783;27;20126;-71
2022/03/28 09:46:28;;;;;;;27.98;21.40;;;7.50;99.90;;;;;;5114970;27;20045;-72
2022/03/28 09:48:57;;;;;;;24.70;19.55;;;7.60;99.90;;;;;;5133739;27;20043;-72
2022/03/28 09:51:27;;;;;;;22.48;18.35;;;7.70;99.90;;;;;;5115338;27;20043;-72
2022/03/28 09:53:52;;;;;;;22.75;17.45;;;7.70;99.90;;;;;;5098757;27;20049;-72
2022/03/28 09:56:18;;;;;;;21.15;17.42;;;7.80;99.90;;;;;;5115216;27;20039;-72
2022/03/28 09:58:59;;;;;;;20.25;15.98;;;7.80;99.90;;;;;;5114129;27;20388;-72
2022/03/28 10:01:27;;;;;;;15.05;13.27;;;7.90;99.90;;;;;;5133022;27;20048;-71
2022/03/28 10:03:55;;;;;;;14.82;13.27;;;7.90;99.90;;;;;;5115332;28;20039;-72
2022/03/28 10:06:21;;;;;;;14.23;12.55;;;7.90;99.90;;;;;;5133004;27;20057;-75
2022/03/28 10:08:47;;;;;;;14.60;13.02;;;8.00;99.90;;;;;;5133340;27;20035;-72
2022/03/28 10:11:13;;;;;;;14.65;13.13;;;8.00;99.90;;;;;;5115135;28;20039;-72
2022/03/28 10:13:39;;;;;;;15.25;12.02;;;8.10;99.90;;;;;;5132938;27;20042;-73
2022/03/28 10:16:05;;;;;;;13.13;11.73;;;8.10;99.90;;;;;;5115077;28;20439;-72
2022/03/28 10:18:34;;;;;;;12.95;11.65;;;8.20;99.90;;;;;;5132575;28;20490;-73
2022/03/28 10:21:19;;;;;;;12.45;11.18;;;8.30;99.90;;;;;;5133327;28;20039;-72
2022/03/28 10:23:50;;;;;;;12.02;10.93;;;8.30;99.90;;;;;;5133028;28;20491;-72
2022/03/28 10:26:17;;;;;;;12.20;11.00;;;8.40;99.90;;;;;;5115331;28;20057;-72
2022/03/28 10:28:58;;;;;;;12.52;11.20;;;8.50;99.90;;;;;;5114704;28;20085;-72
2022/03/28 10:31:23;;;;;;;12.38;11.18;;;8.50;99.90;;;;;;5100157;28;20047;-72
2022/03/28 10:33:52;;;;;;;14.75;12.20;;;8.50;99.90;;;;;;5133373;28;20402;-72
2022/03/28 10:36:27;;;;;;;13.05;11.80;;;8.60;99.90;;;;;;5133464;28;20050;-72
2022/03/28 10:38:53;;;;;;;14.25;11.95;;;8.60;99.90;;;;;;5132725;28;20503;-72
2022/03/28 10:41:20;;;;;;;14.07;12.30;;;8.60;99.90;;;;;;5114830;28;20062;-72
2022/03/28 10:43:46;;;;;;;12.80;11.60;;;8.60;99.90;;;;;;5132542;28;20055;-72
2022/03/28 10:46:12;;;;;;;17.27;11.85;;;8.60;99.90;;;;;;5114823;28;20421;-72
2022/03/28 10:48:59;;;;;;;13.23;11.40;;;8.70;99.90;;;;;;5132580;28;20039;-72
2022/03/28 10:51:29;;;;;;;13.30;11.45;;;8.80;99.90;;;;;;5114805;28;20485;-72
2022/03/28 10:53:56;;;;;;;12.88;11.52;;;8.80;99.90;;;;;;5133074;28;20047;-72
2022/03/28 10:56:34;;;;;;;12.43;11.13;;;8.80;99.90;;;;;;5133042;28;20051;-72
2022/03/28 10:59:07;;;;;;;12.00;10.80;;;8.90;99.90;;;;;;5114288;28;20078;-72
2022/03/28 11:01:35;;;;;;;13.30;10.98;;;8.90;99.90;;;;;;5114281;28;20047;-72
2022/03/28 11:04:06;;;;;;;12.82;11.52;;;9.00;99.90;;;;;;5114657;28;20043;-72
2022/03/28 11:06:48;;;;;;;12.40;11.20;;;9.10;99.90;;;;;;5132554;28;20039;-73
2022/03/28 11:09:14;;;;;;;11.80;10.60;;;9.20;99.90;;;;;;5134056;27;20055;-72
2022/03/28 11:11:56;;;;;;;12.18;10.82;;;9.20;99.90;;;;;;5101042;27;20156;-72
2022/03/28 11:14:41;;;;;;;12.45;11.25;;;9.30;99.90;;;;;;5118465;27;20078;-72
2022/03/28 11:17:20;;;;;;;12.95;11.57;;;9.40;99.90;;;;;;5118328;27;20542;-72
2022/03/28 11:19:53;;;;;;;13.38;11.13;;;9.30;99.90;;;;;;5136259;27;20089;-72
2022/03/28 11:22:19;;;;;;;13.98;11.75;;;9.40;99.90;;;;;;5136461;27;20043;-72
2022/03/28 11:24:56;;;;;;;14.38;12.27;;;9.40;99.90;;;;;;5100867;27;20047;-72
2022/03/28 11:27:28;;;;;;;15.65;12.82;;;9.50;99.90;;;;;;5136482;27;20170;-72
2022/03/28 11:30:05;;;;;;;16.77;13.18;;;9.50;99.90;;;;;;5136587;27;20407;-72
2022/03/28 11:32:35;;;;;;;14.70;12.73;;;9.50;99.90;;;;;;5136757;27;20461;-73
2022/03/28 11:35:01;;;;;;;14.00;12.57;;;9.60;99.90;;;;;;5136672;27;20394;-74
2022/03/28 11:37:27;;;;;;;13.57;12.15;;;9.60;99.90;;;;;;5101045;27;20055;-72
2022/03/28 11:39:58;;;;;;;13.57;12.25;;;9.60;99.90;;;;;;5135876;27;20043;-72
2022/03/28 11:42:27;;;;;;;13.48;12.07;;;9.70;99.90;;;;;;5136554;27;20112;-72
2022/03/28 11:44:54;;;;;;;14.40;12.90;;;9.90;99.90;;;;;;5117716;27;20054;-72
2022/03/28 11:47:20;;;;;;;13.43;12.02;;;9.90;99.90;;;;;;5118019;27;20165;-72
2022/03/28 11:49:53;;;;;;;15.35;12.55;;;10.10;99.90;;;;;;5117467;27;20074;-72
2022/03/28 11:52:22;;;;;;;13.75;12.35;;;10.10;99.90;;;;;;5117902;27;20391;-72
2022/03/28 11:54:48;;;;;;;15.07;13.48;;;10.20;99.90;;;;;;5117385;27;20126;-72
2022/03/28 12:00:13;;;;;;;15.43;12.13;;;10.30;99.90;;;;;;5136006;27;20053;-72
2022/03/28 12:02:51;;;;;;;14.27;12.82;;;10.30;99.90;;;;;;5135506;27;20043;-72
2022/03/28 12:05:34;;;;;;;15.40;13.80;;;10.30;99.90;;;;;;5117576;27;20138;-72
2022/03/28 12:08:08;;;;;;;15.77;13.30;;;10.40;99.90;;;;;;5135542;27;20047;-72
2022/03/28 12:10:34;;;;;;;14.50;13.00;;;10.50;99.90;;;;;;5135947;27;20211;-72
2022/03/28 12:13:00;;;;;;;15.25;13.75;;;10.70;99.90;;;;;;5117105;27;20399;-72
2022/03/28 12:15:30;;;;;;;17.08;13.55;;;10.80;99.90;;;;;;5135226;27;20475;-73
2022/03/28 12:17:59;;;;;;;14.88;12.90;;;10.70;99.90;;;;;;5083056;27;20514;-72
2022/03/28 12:20:31;;;;;;;15.25;12.07;;;10.70;99.90;;;;;;5134893;27;20051;-72
2022/03/28 12:22:58;;;;;;;14.75;12.95;;;10.70;99.90;;;;;;5116998;27;20051;-72
2022/03/28 12:25:24;;;;;;;15.13;13.52;;;10.70;99.90;;;;;;5117142;27;20047;-72
2022/03/28 12:27:53;;;;;;;14.20;12.75;;;10.70;99.90;;;;;;5116445;27;20043;-72
2022/03/28 12:30:19;;;;;;;15.50;12.60;;;10.80;99.90;;;;;;5135179;27;20380;-72
2022/03/28 12:32:44;;;;;;;14.90;12.57;;;10.70;99.90;;;;;;5134719;27;20057;-72
2022/03/28 12:35:10;;;;;;;15.43;13.45;;;10.70;99.90;;;;;;5135086;27;20047;-72
2022/03/28 12:37:36;;;;;;;15.45;13.85;;;10.80;99.90;;;;;;5134988;27;20043;-72
2022/03/28 12:40:03;;;;;;;16.45;13.25;;;10.80;99.90;;;;;;5116345;27;20051;-73
2022/03/28 12:42:28;;;;;;;17.92;13.68;;;10.90;99.90;;;;;;5116825;27;20043;-73
2022/03/28 12:44:55;;;;;;;16.13;13.98;;;10.90;99.90;;;;;;5134511;27;20065;-72
2022/03/28 12:47:21;;;;;;;14.23;12.73;;;10.90;99.90;;;;;;5134919;27;20054;-72
2022/03/28 12:49:46;;;;;;;17.45;14.02;;;10.90;99.90;;;;;;5099022;27;20046;-73
2022/03/28 12:52:14;;;;;;;15.18;13.57;;;11.00;99.90;;;;;;5134832;27;20486;-72